• Join FlightAware (Why Join?)
  • Login
  • US Flag 
08:49AM EDT


 

Airport Tracker/Info


-or-


 

Live Flight TrackerFlight Track Log ✈ SWA1042 ✈ 04-May-2013 ✈ KMDW - KLGA

Flight Track Log - Related Links

Times and Time Zones

All times are in EDT time to prevent confusion due to time zone crossing. See the SWA1042 flight status page for this flight to view local times or setup timezone preferences in your user account.

Time Position Orientation Groundspeed Altitude Reporting Facility
EDT Latitude Longitude Course Direction KTS MPH feet Rate Location/Type
07:28AM 41.8000 -87.7167 90° East 155 178 2,100  Level Chicago TRACON
07:29AM 41.7833 -87.6333 105° East 221 254 4,200 1,920 Climbing Chicago TRACON
07:30AM 41.7989 -87.6031 55° Northeast 235 270 5,200 3,120 Climbing Chicago Center
07:31AM 41.8256 -87.5119 69° East 264 304 9,100 3,900 Climbing Chicago Center
07:32AM 41.8503 -87.4214 70° East 278 320 13,100 3,240 Climbing Chicago Center
07:33AM 41.8244 -87.3219 109° East 285 328 15,800 2,820 Climbing Chicago Center
07:34AM 41.7500 -87.0321 90° East  Level FlightAware Approximate
07:34AM 41.7908 -87.1800 108° East 331 381 18,900  Level Chicago Center
07:35AM 41.7619 -87.0481 106° East 367 422 21,700 2,580 Climbing Chicago Center
07:36AM 41.7642 -86.9053 89° East 388 447 24,200 2,220 Climbing Chicago Center
07:37AM 41.7644 -86.7561 90° East 401 461 26,300 1,980 Climbing Chicago Center
07:38AM 41.7661 -86.6072 89° East 412 474 28,300 1,860 Climbing Chicago Center
07:39AM 41.7667 -86.4472 90° East 428 493 30,200 1,860 Climbing Chicago Center
07:40AM 41.7683 -86.2872 89° East 431 496 32,200 2,100 Climbing Chicago Center
07:41AM 41.7706 -86.1281 89° East 430 495 34,500 2,100 Climbing Chicago Center
07:42AM 41.7722 -85.9747 89° East 419 482 36,500 1,680 Climbing Chicago Center
07:43AM 41.7739 -85.8258 89° East 405 466 38,000 1,140 Climbing Chicago Center
07:44AM 41.7753 -85.6739 89° East 404 465 38,900 840 Climbing Chicago Center
07:45AM 41.7764 -85.5172 89° East 413 475 39,800 840 Climbing Chicago Center
07:46AM 41.7778 -85.3567 89° East 420 483 40,700 540 Climbing Chicago Center
07:47AM 41.7778 -85.1964 90° East 424 488 41,000 120 Climbing Chicago Center
07:48AM 41.7786 -85.0381 90° East 426 490 41,000  Level Chicago Center
07:49AM 41.7803 -84.8525 89° East 424 488 41,000  Level Cleveland Center
07:50AM 41.7797 -84.6964 90° East 419 482 41,000  Level Cleveland Center
07:51AM 41.7811 -84.5406 89° East 419 482 41,000  Level Cleveland Center
07:52AM 41.7781 -84.3869 91° East 419 482 41,000  Level Cleveland Center
07:53AM 41.7764 -84.2478 91° East 419 482 41,000  Level Cleveland Center
07:54AM 41.7747 -84.0944 91° East 414 476 41,000  Level Cleveland Center
07:55AM 41.7731 -83.9411 91° East 414 476 41,000  Level Cleveland Center
07:56AM 41.7694 -83.7822 92° East 414 476 41,000  Level Cleveland Center
07:57AM 41.7694 -83.6292 90° East 414 476 41,000  Level Cleveland Center
07:58AM 41.7608 -83.4756 94° East 414 476 41,000  Level Cleveland Center
07:59AM 41.7439 -83.3161 98° East 419 482 41,000  Level Cleveland Center
08:00AM 41.7308 -83.1625 96° East 419 482 41,000  Level Cleveland Center
08:01AM 41.7133 -83.0031 98° East 424 488 41,000  Level Cleveland Center
08:02AM 41.7000 -82.8497 97° East 424 488 41,000  Level Cleveland Center
08:03AM 41.6842 -82.6908 98° East 424 488 41,000  Level Cleveland Center
08:04AM 41.6661 -82.5344 99° East 424 488 41,000  Level Cleveland Center
08:05AM 41.6500 -82.3617 97° East 424 488 41,000  Level Cleveland Center
08:06AM 41.6336 -82.2028 98° East 431 496 41,000  Level Cleveland Center
08:07AM 41.6150 -82.0439 99° East 431 496 41,000  Level Cleveland Center
08:08AM 41.6000 -81.9019 98° East 431 496 41,000  Level Cleveland Center
08:09AM 41.5831 -81.7408 98° East 431 496 41,000  Level Cleveland Center
08:10AM 41.5658 -81.5794 98° East 431 496 41,000  Level Cleveland Center
08:11AM 41.5464 -81.4044 98° East 425 489 41,000  Level Cleveland Center
08:12AM 41.5267 -81.2461 99° East 425 489 41,000  Level Cleveland Center
08:13AM 41.5086 -81.0906 99° East 425 489 41,000  Level Cleveland Center
08:14AM 41.4967 -80.9325 96° East 425 489 41,000  Level Cleveland Center
08:15AM 41.4825 -80.7772 97° East 425 489 41,000  Level Cleveland Center
08:16AM 41.4681 -80.6164 97° East 425 489 41,000  Level Cleveland Center
08:17AM 41.4533 -80.4586 97° East 430 495 41,000  Level Cleveland Center
08:18AM 41.4406 -80.3006 96° East 425 489 41,000  Level Cleveland Center
08:19AM 41.4256 -80.1456 97° East 425 489 41,000  Level Cleveland Center
08:20AM 41.4144 -80.0183 97° East 425 489 41,000  Level Cleveland Center
08:21AM 41.3969 -79.8497 98° East 425 489 41,000  Level Cleveland Center
08:22AM 41.3811 -79.6892 97° East 425 489 41,000  Level Cleveland Center
08:23AM 41.3631 -79.5097 98° East 431 496 41,000  Level Cleveland Center
08:24AM 41.3467 -79.3522 98° East 431 496 41,000  Level Cleveland Center
08:25AM 41.3306 -79.2117 99° East 422 486 41,000  Level Cleveland Center
08:26AM 41.3139 -79.0517 98° East 427 491 41,000  Level Cleveland Center
08:27AM 41.2969 -78.8750 97° East 427 491 41,000 -780 Level Cleveland Center
08:29AM 41.2606 -78.5439 98° East 455 524 38,700 -1,440 Descending New York Center
08:30AM 41.2431 -78.3983 99° East 448 516 36,600 -2,340 Descending New York Center
08:31AM 41.2261 -78.2392 98° East 443 510 34,000 -1,800 Descending New York Center
08:32AM 41.2067 -78.0825 99° East 438 504 33,000 -540 Descending New York Center
08:33AM 41.1886 -77.9317 99° East 426 490 33,000  Level New York Center
08:34AM 41.1686 -77.7806 100° East 420 483 33,000  Level New York Center
08:35AM 41.1506 -77.6269 99° East 413 475 33,000  Level New York Center
08:36AM 41.1319 -77.4764 99° East 413 475 33,000 -300 Level New York Center
08:37AM 41.1111 -77.3283 101° East 413 475 32,400 -1,020 Descending New York Center
08:38AM 41.0900 -77.1803 101° East 413 475 31,100 -1,860 Descending New York Center
08:39AM 41.0675 -77.0158 100° East 413 475 28,700 -2,160 Descending New York Center
08:40AM 41.0497 -76.8792 100° East 408 470 26,800 -1,680 Descending New York Center
08:41AM 41.0297 -76.7400 101° East 394 453 25,400 -1,260 Descending New York Center
08:42AM 41.0033 -76.5972 104° East 389 448 24,300 -1,080 Descending New York Center
08:43AM 40.9706 -76.4572 107° East 399 459 23,300 -1,080 Descending New York Center
08:44AM 40.9394 -76.3225 107° East 393 452 22,300 -1,440 Descending New York Center
08:45AM 40.9061 -76.1881 108° East 388 447 20,400 -1,860 Descending New York Center
08:46AM 40.8819 -76.0764 106° East 369 425 18,600 -1,860 Descending New York Center
08:47AM 40.8519 -75.9561 108° East 354 407 16,700 -1,740 Descending New York Center
08:48AM 40.8181 -75.8247 109° East 348 400 15,100 -1,320 Descending New York Center
08:49AM 40.7897 -75.7072 108° East 342 394 14,100 -960 Descending New York Center
08:50AM 40.7631 -75.5931 107° East 337 388 13,200 -960 Descending New York Center
08:51AM 40.7361 -75.4897 109° East 331 381 12,300 -1,020 Descending New York Center
08:52AM 40.7114 -75.3758 106° East 325 374 11,300 -1,140 Descending New York Center
08:53AM 40.6869 -75.2567 105° East 312 359 10,100 -660 Descending New York Center
08:54AM 40.6714 -75.1708 103° East 285 328 10,000 -60 Descending New York Center
08:55AM 40.6244 -75.0883 127° Southeast 274 315 10,000  Level New York Center
08:56AM 40.5689 -75.0058 132° Southeast 279 321 10,000  Level New York Center
08:57AM 40.5411 -74.9139 112° Southeast 271 312 10,000  Level New York Center
08:58AM 40.5169 -74.8278 110° East 266 306 10,000  Level New York Center
08:59AM 40.4867 -74.7358 113° Southeast 266 306 10,000  Level New York Center
09:00AM 40.4583 -74.6442 112° Southeast 272 313 10,000 -420 Level New York Center
09:01AM 40.4303 -74.5500 111° Southeast 272 313 9,200 -1,020 Descending New York Center
09:02AM 40.4519 -74.4583 73° East 259 298 8,000 -600 Descending New York Center
09:04AM 40.4833 -74.3500 69° East 258 297 8,000  Level New York TRACON
09:05AM 40.5000 -74.2500 78° East 256 295 8,000 -720 Level New York TRACON
09:06AM 40.5333 -74.1667 62° Northeast 258 297 6,600 -1,380 Descending New York TRACON
09:06AM 40.5667 -74.1000 57° Northeast 248 285 5,400 -840 Descending New York TRACON
09:08AM 40.6333 -74.0667 21° North 252 290 5,000 -660 Descending New York TRACON
09:08AM 40.6833 -74.0000 45° Northeast 244 281 4,100 -540 Descending New York TRACON
09:09AM 40.7500 -74.0000 360° North 257 296 4,000 -60 Descending New York TRACON
09:11AM 40.8167 -73.9667 21° North 246 283 4,000 -300 Level New York TRACON
09:12AM 40.8667 -73.9167 37° Northeast 247 284 3,400 -540 Descending New York TRACON
09:13AM 40.9167 -73.8667 37° Northeast 216 249 3,000 -420 Descending New York TRACON
09:14AM 40.9500 -73.8000 56° Northeast 214 246 2,600 -540 Descending New York TRACON
09:14AM 40.9000 -73.7833 166° South 217 250 2,000 -360 Descending New York TRACON
09:15AM 40.8500 -73.8167 207° Southwest 208 239 2,000 -360 Level New York TRACON
09:16AM 40.8167 -73.8667 229° Southwest 171 197 1,300 -780 Descending New York TRACON
09:18AM 40.7833 -73.8833 201° Southwest 156 180 400 -840 Descending New York TRACON
09:20AM 40.7772 -73.8726 195° South  Level Estimated
09:27AM 40.7772 -73.8726 195° South  Level Estimated